Time;durP1;ratioP1;P1;durP2;ratioP2;P2;SDS_P1;SDS_P2;PMS_P1;PMS_P2;Temp;Humidity;BMP_temperature;BMP_pressure;BME280_temperature;BME280_humidity;BME280_pressure;Samples;Min_cycle;Max_cycle;Signal;HPM_P1;HPM_P2
2021/10/29 00:02:08;;;;;;;;;20.25;14.50;;;;;18.48;100.00;100397.09;5042057;28;46083;-81
2021/10/29 00:04:34;;;;;;;;;16.75;14.00;;;;;18.53;100.00;100405.47;5060566;28;45248;-81
2021/10/29 00:06:59;;;;;;;;;19.00;15.25;;;;;18.46;100.00;100399.09;5060562;28;45201;-81
2021/10/29 00:09:25;;;;;;;;;18.50;15.50;;;;;18.53;100.00;100401.97;5060926;28;45260;-80
2021/10/29 00:11:50;;;;;;;;;15.00;13.75;;;;;18.53;100.00;100396.59;5042221;28;47203;-81
2021/10/29 00:14:16;;;;;;;;;15.75;13.25;;;;;18.46;100.00;100396.44;5065971;28;45203;-81
2021/10/29 00:16:41;;;;;;;;;15.00;13.75;;;;;18.40;100.00;100394.38;5042484;28;45384;-80
2021/10/29 00:19:07;;;;;;;;;16.25;15.25;;;;;18.42;100.00;100388.88;5060298;28;45245;-81
2021/10/29 00:21:32;;;;;;;;;16.00;13.00;;;;;18.41;100.00;100385.38;5042154;28;47460;-81
2021/10/29 00:23:57;;;;;;;;;13.75;13.25;;;;;18.37;100.00;100389.38;5060542;28;45403;-81
2021/10/29 00:26:23;;;;;;;;;17.50;14.50;;;;;18.38;100.00;100380.38;5042209;28;45313;-81
2021/10/29 00:28:49;;;;;;;;;17.00;14.50;;;;;18.24;100.00;100389.00;5066226;28;45277;-81
2021/10/29 00:31:14;;;;;;;;;16.75;14.00;;;;;18.24;100.00;100391.66;5060027;28;45302;-81
2021/10/29 00:33:39;;;;;;;;;19.25;15.25;;;;;18.16;100.00;100387.13;5060062;28;45332;-81
2021/10/29 00:36:05;;;;;;;;;16.00;13.50;;;;;18.23;100.00;100385.47;5060439;28;45343;-81
2021/10/29 00:38:30;;;;;;;;;15.25;14.00;;;;;18.14;100.00;100385.59;5042175;28;45458;-81
2021/10/29 00:40:56;;;;;;;;;19.25;15.25;;;;;18.07;100.00;100380.06;5060088;28;45458;-81
2021/10/29 00:43:21;;;;;;;;;17.75;11.50;;;;;18.03;100.00;100381.38;5060168;28;45402;-81
2021/10/29 00:45:47;;;;;;;;;16.50;13.25;;;;;18.14;100.00;100377.59;5042194;28;45335;-81
2021/10/29 00:48:13;;;;;;;;;19.75;14.00;;;;;17.91;100.00;100380.84;5041731;28;45479;-81
2021/10/29 00:50:39;;;;;;;;;13.75;12.50;;;;;17.82;100.00;100376.47;5041831;28;48310;-81
2021/10/29 00:53:06;;;;;;;;;13.75;13.00;;;;;17.82;100.00;100375.63;5060284;28;45178;-80
2021/10/29 00:55:32;;;;;;;;;21.50;14.75;;;;;17.76;100.00;100369.06;5062416;28;45289;-80
2021/10/29 00:57:57;;;;;;;;;21.75;12.75;;;;;17.64;100.00;100373.03;5069368;28;45490;-80
2021/10/29 01:00:24;;;;;;;;;16.25;12.25;;;;;17.67;100.00;100372.69;5041615;28;48396;-81
2021/10/29 01:02:50;;;;;;;;;13.75;12.00;;;;;17.59;100.00;100378.78;5059659;28;45311;-81
2021/10/29 01:05:15;;;;;;;;;16.75;15.25;;;;;17.59;100.00;100364.59;5059937;28;45473;-81
2021/10/29 01:07:41;;;;;;;;;17.50;13.75;;;;;17.67;100.00;100363.84;5059899;28;45252;-81
2021/10/29 01:10:07;;;;;;;;;16.00;10.50;;;;;17.76;100.00;100369.06;5059660;28;46044;-81
2021/10/29 01:12:33;;;;;;;;;13.75;13.75;;;;;17.78;100.00;100360.91;5062568;28;45299;-81
2021/10/29 01:15:02;;;;;;;;;16.50;14.25;;;;;17.54;100.00;100358.91;5043840;28;45462;-81
2021/10/29 01:17:27;;;;;;;;;13.75;13.00;;;;;17.44;100.00;100355.50;5059449;28;45396;-81
2021/10/29 01:19:55;;;;;;;;;17.50;13.50;;;;;17.41;100.00;100348.63;5059483;28;45769;-81
2021/10/29 01:22:22;;;;;;;;;14.75;14.00;;;;;17.42;100.00;100346.81;5041503;28;46045;-81
2021/10/29 01:24:48;;;;;;;;;13.75;12.25;;;;;17.27;100.00;100343.88;5059651;28;45299;-81
2021/10/29 01:27:15;;;;;;;;;14.00;13.50;;;;;17.38;100.00;100343.63;5048341;28;46032;-80
2021/10/29 01:29:41;;;;;;;;;19.75;15.00;;;;;17.28;100.00;100340.22;5045882;28;47295;-81
2021/10/29 01:32:08;;;;;;;;;18.25;14.75;;;;;17.32;100.00;100340.72;5044740;28;45197;-80
2021/10/29 01:34:35;;;;;;;;;19.50;12.25;;;;;17.33;100.00;100345.06;5062916;28;45261;-81
2021/10/29 01:37:01;;;;;;;;;16.75;14.00;;;;;17.23;100.00;100331.00;5063078;28;45311;-80
2021/10/29 01:39:26;;;;;;;;;19.50;11.75;;;;;17.21;100.00;100331.97;5044649;28;47390;-81
2021/10/29 01:41:52;;;;;;;;;20.50;14.75;;;;;17.29;100.00;100325.06;5062974;28;45330;-81
2021/10/29 01:44:17;;;;;;;;;17.25;13.25;;;;;17.22;100.00;100319.47;5062887;28;45299;-80
2021/10/29 01:46:43;;;;;;;;;17.00;12.00;;;;;17.21;100.00;100318.63;5062936;28;45360;-80
2021/10/29 01:49:08;;;;;;;;;13.75;12.25;;;;;17.31;100.00;100320.38;5058141;28;45347;-81
2021/10/29 01:51:34;;;;;;;;;14.25;13.25;;;;;17.23;100.00;100313.16;5024764;28;45345;-80
2021/10/29 01:54:00;;;;;;;;;18.25;13.25;;;;;17.26;100.00;100302.19;5042839;28;45229;-81
2021/10/29 01:56:26;;;;;;;;;17.50;14.00;;;;;17.32;100.00;100306.88;5042695;28;45163;-81
2021/10/29 01:58:52;;;;;;;;;16.75;11.50;;;;;17.29;100.00;100304.53;5059951;28;45277;-81
2021/10/29 02:01:17;;;;;;;;;12.50;11.00;;;;;17.18;100.00;100302.13;5044769;28;45657;-80
2021/10/29 02:03:44;;;;;;;;;13.75;13.75;;;;;17.09;100.00;100303.91;5062309;28;45284;-80
2021/10/29 02:06:09;;;;;;;;;19.75;13.75;;;;;16.92;100.00;100296.78;5062808;28;45320;-80
2021/10/29 02:08:35;;;;;;;;;20.00;12.00;;;;;17.03;100.00;100296.50;5044258;28;46739;-81
2021/10/29 02:11:00;;;;;;;;;14.25;13.00;;;;;17.00;100.00;100299.50;5044586;28;45440;-80
2021/10/29 02:13:26;;;;;;;;;15.00;13.25;;;;;17.06;100.00;100312.22;5050926;28;45436;-80
2021/10/29 02:15:52;;;;;;;;;18.75;12.00;;;;;17.02;100.00;100296.69;5062987;28;45358;-80
2021/10/29 02:18:17;;;;;;;;;11.50;11.00;;;;;16.97;100.00;100293.63;5061869;28;45522;-81
2021/10/29 02:20:44;;;;;;;;;16.50;12.00;;;;;17.00;100.00;100286.16;5062429;28;45443;-80
2021/10/29 02:23:11;;;;;;;;;12.25;11.00;;;;;16.97;100.00;100285.63;5062356;28;45283;-80
2021/10/29 02:25:39;;;;;;;;;14.25;11.75;;;;;16.89;100.00;100281.06;5044308;28;45226;-80
2021/10/29 02:28:05;;;;;;;;;12.00;10.75;;;;;16.94;100.00;100285.94;5049768;28;47445;-80
2021/10/29 02:30:30;;;;;;;;;13.75;12.00;;;;;16.96;100.00;100276.78;5044170;28;45453;-80
2021/10/29 02:32:56;;;;;;;;;20.75;16.25;;;;;16.95;100.00;100276.94;5061850;28;45380;-80
2021/10/29 02:35:21;;;;;;;;;15.25;12.00;;;;;16.94;100.00;100278.75;5062261;28;45430;-80
2021/10/29 02:37:46;;;;;;;;;15.00;12.00;;;;;16.88;100.00;100268.72;5061765;28;45421;-81
2021/10/29 02:40:12;;;;;;;;;16.00;13.00;;;;;16.92;100.00;100266.59;5062030;28;45312;-80
2021/10/29 02:42:37;;;;;;;;;17.50;12.00;;;;;16.89;100.00;100270.41;5061990;28;45316;-80
2021/10/29 02:45:03;;;;;;;;;20.00;11.00;;;;;16.99;100.00;100268.47;5062117;28;45371;-80
2021/10/29 02:47:28;;;;;;;;;11.75;10.00;;;;;17.04;100.00;100263.50;5043280;28;47161;-80
2021/10/29 02:49:54;;;;;;;;;14.75;10.75;;;;;17.00;100.00;100263.97;5062006;28;45327;-81
2021/10/29 02:52:19;;;;;;;;;16.50;12.00;;;;;16.97;100.00;100258.94;5061979;28;45411;-81
2021/10/29 02:54:44;;;;;;;;;15.50;13.00;;;;;16.98;100.00;100266.81;5044190;28;45398;-80
2021/10/29 02:57:10;;;;;;;;;15.00;11.00;;;;;16.91;100.00;100249.75;5074190;28;45782;-80
2021/10/29 02:59:35;;;;;;;;;14.50;11.00;;;;;16.92;100.00;100251.44;5043880;28;45428;-80
2021/10/29 03:02:00;;;;;;;;;16.75;12.00;;;;;16.91;100.00;100240.91;5061788;28;45285;-81
2021/10/29 03:04:26;;;;;;;;;13.25;12.00;;;;;16.96;100.00;100236.78;5061965;28;45229;-80
2021/10/29 03:06:52;;;;;;;;;17.00;11.00;;;;;16.98;100.00;100233.97;5045219;28;46143;-81
2021/10/29 03:09:18;;;;;;;;;12.75;11.00;;;;;16.97;100.00;100225.13;5043603;28;45526;-79
2021/10/29 03:11:43;;;;;;;;;11.75;9.75;;;;;16.98;100.00;100229.47;5042986;28;44730;-80
2021/10/29 03:14:09;;;;;;;;;12.75;10.25;;;;;16.90;100.00;100220.56;5068765;28;44809;-80
2021/10/29 03:16:34;;;;;;;;;11.75;10.25;;;;;17.04;100.00;100215.47;5048643;28;47924;-80
2021/10/29 03:19:00;;;;;;;;;15.75;12.75;;;;;16.99;100.00;100215.13;5074372;28;44722;-81
2021/10/29 03:21:25;;;;;;;;;15.50;11.00;;;;;17.02;100.00;100214.81;5049939;28;46052;-80
2021/10/29 03:23:50;;;;;;;;;13.50;11.00;;;;;17.05;100.00;100211.81;5041700;28;45486;-81
2021/10/29 03:26:16;;;;;;;;;13.25;11.75;;;;;17.01;100.00;100204.31;5038900;28;45296;-81
2021/10/29 03:28:41;;;;;;;;;10.00;4.00;;;;;16.92;100.00;100207.91;5044335;28;45379;-80
2021/10/29 03:31:07;;;;;;;;;13.75;10.25;;;;;16.95;100.00;100196.91;5023650;28;45733;-81
2021/10/29 03:33:37;;;;;;;;;10.00;10.00;;;;;16.97;100.00;100193.09;5040998;28;45506;-81
2021/10/29 03:36:04;;;;;;;;;12.00;9.00;;;;;17.01;100.00;100197.16;5041195;28;45431;-80
2021/10/29 03:41:18;;;;;;;;;12.75;9.75;;;;;16.97;100.00;100193.09;5041102;28;45282;-80
2021/10/29 03:46:29;;;;;;;;;14.25;10.75;;;;;17.01;100.00;100186.47;5040816;28;45427;-80
2021/10/29 03:49:02;;;;;;;;;13.00;11.50;;;;;17.07;100.00;100183.16;5039668;28;45307;-80
2021/10/29 03:51:38;;;;;;;;;14.00;10.75;;;;;17.13;100.00;100187.84;5041050;28;45497;-80
2021/10/29 03:56:30;;;;;;;;;11.50;11.50;;;;;17.16;100.00;100184.03;5051018;28;46006;-80
2021/10/29 03:58:59;;;;;;;;;13.75;12.00;;;;;17.17;100.00;100177.72;5042463;28;45206;-81
2021/10/29 04:01:25;;;;;;;;;15.50;11.00;;;;;17.13;100.00;100179.84;5023701;28;45578;-80
2021/10/29 04:03:50;;;;;;;;;10.00;10.00;;;;;17.03;100.00;100175.63;5040137;28;45518;-81
2021/10/29 04:06:16;;;;;;;;;13.50;12.00;;;;;17.00;100.00;100167.97;5040920;28;45440;-80
2021/10/29 04:08:43;;;;;;;;;17.00;11.25;;;;;17.02;100.00;100172.16;5040420;28;45332;-81
2021/10/29 04:11:08;;;;;;;;;8.75;5.75;;;;;17.06;100.00;100165.47;5023008;28;45283;-80
2021/10/29 04:13:36;;;;;;;;;11.00;10.75;;;;;17.08;100.00;100158.16;5046094;28;45433;-80
2021/10/29 04:16:03;;;;;;;;;18.00;10.75;;;;;17.16;100.00;100152.03;5040305;28;47132;-80
2021/10/29 04:18:29;;;;;;;;;11.00;10.50;;;;;17.04;100.00;100146.13;5040006;28;45352;-80
2021/10/29 04:20:55;;;;;;;;;10.50;9.25;;;;;16.97;100.00;100137.09;5040883;28;45298;-80
2021/10/29 04:23:21;;;;;;;;;12.25;9.75;;;;;16.98;100.00;100141.44;5040198;28;45661;-80
2021/10/29 04:25:46;;;;;;;;;13.25;10.00;;;;;17.04;100.00;100127.44;5040432;28;45348;-80
2021/10/29 04:28:12;;;;;;;;;13.50;11.00;;;;;17.12;100.00;100130.16;5064755;28;45359;-81
2021/10/29 04:30:41;;;;;;;;;12.25;10.00;;;;;17.09;100.00;100133.16;5042354;28;45441;-80
2021/10/29 04:33:07;;;;;;;;;12.00;9.25;;;;;17.12;100.00;100121.31;5041795;28;45581;-80
2021/10/29 04:35:39;;;;;;;;;12.75;10.00;;;;;17.18;100.00;100132.19;5060413;28;45226;-80
2021/10/29 04:38:09;;;;;;;;;10.00;8.25;;;;;17.28;100.00;100125.91;5060322;28;45248;-81
2021/10/29 04:40:36;;;;;;;;;11.00;9.75;;;;;17.17;100.00;100127.84;5060288;28;45264;-80
2021/10/29 04:43:03;;;;;;;;;10.25;9.50;;;;;17.13;100.00;100125.66;5060150;28;45419;-80
2021/10/29 04:45:29;;;;;;;;;6.00;6.00;;;;;17.06;100.00;100122.81;5059993;28;45368;-80
2021/10/29 04:47:54;;;;;;;;;18.00;8.00;;;;;17.09;100.00;100121.66;5059815;28;45414;-81
2021/10/29 04:50:20;;;;;;;;;11.50;9.50;;;;;17.08;100.00;100117.31;5060498;28;45230;-80
2021/10/29 04:52:45;;;;;;;;;13.50;10.25;;;;;16.98;100.00;100120.09;5042266;28;45615;-80
2021/10/29 04:55:11;;;;;;;;;15.50;9.75;;;;;17.05;100.00;100126.47;5042310;28;48255;-80
2021/10/29 04:57:36;;;;;;;;;14.25;10.25;;;;;17.13;100.00;100113.16;5054938;28;45328;-80
2021/10/29 05:00:05;;;;;;;;;14.00;10.25;;;;;17.12;100.00;100116.81;5063757;28;45763;-81
2021/10/29 05:02:30;;;;;;;;;16.25;11.50;;;;;17.07;100.00;100108.47;5047282;28;45547;-81
2021/10/29 05:04:56;;;;;;;;;13.00;10.00;;;;;17.08;100.00;100104.81;5045595;28;46889;-81
2021/10/29 05:07:21;;;;;;;;;13.50;10.75;;;;;17.03;100.00;100104.44;5063530;28;45360;-80
2021/10/29 05:09:46;;;;;;;;;11.25;9.00;;;;;17.00;100.00;100107.44;5045455;28;45432;-80
2021/10/29 05:12:12;;;;;;;;;11.25;10.50;;;;;17.11;100.00;100106.31;5063631;28;45391;-80
2021/10/29 05:14:37;;;;;;;;;9.50;7.75;;;;;17.14;100.00;100101.47;5025156;28;47673;-81
2021/10/29 05:17:03;;;;;;;;;17.75;12.00;;;;;17.16;100.00;100090.66;5043147;28;45300;-81
2021/10/29 05:19:28;;;;;;;;;12.00;9.50;;;;;17.17;100.00;100101.19;5043057;28;45545;-80
2021/10/29 05:21:54;;;;;;;;;7.00;5.00;;;;;17.08;100.00;100094.13;5043498;28;45449;-80
2021/10/29 05:24:19;;;;;;;;;20.00;10.25;;;;;17.18;100.00;100097.50;5042931;28;45321;-80
2021/10/29 05:26:44;;;;;;;;;11.00;10.00;;;;;17.19;100.00;100090.34;5043325;28;45515;-80
2021/10/29 05:29:10;;;;;;;;;11.25;7.75;;;;;17.12;100.00;100078.63;5069083;28;45261;-80
2021/10/29 05:31:36;;;;;;;;;14.00;10.00;;;;;17.05;100.00;100080.28;5045179;28;45453;-80
2021/10/29 05:34:02;;;;;;;;;14.75;10.00;;;;;17.09;100.00;100082.47;5044758;28;47306;-80
2021/10/29 05:36:27;;;;;;;;;15.50;10.75;;;;;16.99;100.00;100079.09;5063297;28;45288;-80
2021/10/29 05:38:53;;;;;;;;;12.00;9.75;;;;;16.99;100.00;100088.94;5063418;28;45250;-80
2021/10/29 05:41:18;;;;;;;;;11.50;9.50;;;;;16.98;100.00;100085.44;5045116;28;45549;-80
2021/10/29 05:43:43;;;;;;;;;13.00;10.00;;;;;17.05;100.00;100073.09;5062802;28;46343;-80
2021/10/29 05:46:09;;;;;;;;;8.75;8.75;;;;;16.96;100.00;100071.41;5044860;28;45742;-80
2021/10/29 05:48:38;;;;;;;;;12.25;10.50;;;;;17.10;100.00;100075.31;5062780;28;45265;-80
2021/10/29 05:51:09;;;;;;;;;13.50;10.75;;;;;17.10;100.00;100084.16;5045086;28;45795;-80
2021/10/29 05:56:17;;;;;;;;;12.25;9.25;;;;;17.13;100.00;100078.47;5071260;28;45507;-80
2021/10/29 05:58:42;;;;;;;;;16.00;10.00;;;;;16.96;100.00;100066.06;5065799;28;45166;-80
2021/10/29 06:01:08;;;;;;;;;15.75;9.75;;;;;16.98;100.00;100066.75;5062786;28;45262;-80
2021/10/29 06:03:33;;;;;;;;;13.00;9.00;;;;;16.97;100.00;100061.56;5043894;28;47598;-80
2021/10/29 06:06:00;;;;;;;;;11.25;9.75;;;;;16.96;100.00;100057.22;5062894;28;45264;-80
2021/10/29 06:08:25;;;;;;;;;10.50;9.00;;;;;16.94;100.00;100057.38;5044590;28;45369;-80
2021/10/29 06:10:52;;;;;;;;;11.00;10.00;;;;;16.92;100.00;100054.06;5062576;28;45791;-80
2021/10/29 06:13:18;;;;;;;;;15.50;9.75;;;;;16.90;100.00;100057.88;5067210;28;45302;-80
2021/10/29 06:15:45;;;;;;;;;10.00;10.00;;;;;16.92;100.00;100056.75;5062635;28;45326;-80
2021/10/29 06:18:13;;;;;;;;;14.50;10.00;;;;;16.90;100.00;100057.88;5062440;28;45338;-81
2021/10/29 06:20:39;;;;;;;;;14.75;11.00;;;;;16.92;100.00;100055.91;5044793;28;45562;-79
2021/10/29 06:23:07;;;;;;;;;13.50;10.75;;;;;17.05;100.00;100043.75;5062132;28;46194;-80
2021/10/29 06:25:41;;;;;;;;;11.25;10.00;;;;;17.00;100.00;100056.75;5044116;28;45359;-80
2021/10/29 06:28:23;;;;;;;;;11.00;9.50;;;;;17.02;100.00;100041.44;5068047;28;45418;-80
2021/10/29 06:30:49;;;;;;;;;10.50;9.50;;;;;17.05;100.00;100049.09;5062333;28;45312;-80
2021/10/29 06:33:23;;;;;;;;;10.00;8.25;;;;;17.15;100.00;100043.63;5061793;28;45914;-80
2021/10/29 06:35:50;;;;;;;;;13.50;9.00;;;;;17.15;100.00;100049.81;5044028;28;45316;-80
2021/10/29 06:38:16;;;;;;;;;10.00;10.00;;;;;17.13;100.00;100038.44;5062202;28;45343;-80
2021/10/29 06:40:44;;;;;;;;;11.25;9.00;;;;;17.17;100.00;100052.31;5044116;28;45450;-80
2021/10/29 06:43:21;;;;;;;;;10.00;9.00;;;;;17.26;100.00;100047.81;5062067;28;46146;-79
2021/10/29 06:59:18;;;;;;;;;13.75;10.50;;;;;17.48;100.00;100057.91;5062951;28;45364;-81
2021/10/29 07:40:00;;;;;;;;;8.50;8.25;;;;;18.68;100.00;100042.78;5061443;28;45217;-80
2021/10/29 07:43:15;;;;;;;;;11.00;9.00;;;;;18.99;100.00;100048.19;5061645;28;45373;-80
2021/10/29 07:45:21;;;;;;;;;8.00;7.50;;;;;18.82;100.00;100049.28;5052663;28;45372;-81
2021/10/29 07:47:47;;;;;;;;;12.25;8.50;;;;;18.89;100.00;100041.38;5060582;28;46204;-80
2021/10/29 07:50:15;;;;;;;;;8.25;8.00;;;;;18.97;100.00;100057.38;5042956;28;45583;-80
2021/10/29 07:52:43;;;;;;;;;8.25;6.50;;;;;19.03;100.00;100048.66;5043336;28;45342;-80
2021/10/29 07:55:11;;;;;;;;;6.00;6.00;;;;;19.00;100.00;100036.47;5043189;28;45574;-80
2021/10/29 07:57:38;;;;;;;;;8.50;7.00;;;;;19.10;100.00;100049.63;5074157;28;46452;-80
2021/10/29 08:00:05;;;;;;;;;10.50;6.75;;;;;19.23;100.00;100052.56;5062766;28;45665;-80
2021/10/29 08:02:32;;;;;;;;;6.50;6.25;;;;;19.17;100.00;100060.47;5046745;28;45364;-80
2021/10/29 08:04:57;;;;;;;;;8.50;6.25;;;;;19.26;100.00;100062.94;5054676;28;45684;-81
2021/10/29 08:07:23;;;;;;;;;7.00;6.50;;;;;19.43;100.00;100052.94;5049558;28;47478;-80
2021/10/29 08:09:49;;;;;;;;;9.75;6.75;;;;;19.46;100.00;100068.66;5064877;28;45240;-79
2021/10/29 08:12:19;;;;;;;;;10.50;6.25;;;;;19.64;100.00;100071.09;5045477;28;45336;-80
2021/10/29 08:14:46;;;;;;;;;9.25;6.75;;;;;19.65;100.00;100067.41;5050400;28;45637;-81
2021/10/29 08:17:12;;;;;;;;;8.25;8.00;;;;;19.60;100.00;100083.16;5043037;28;47620;-80
2021/10/29 08:19:38;;;;;;;;;6.00;6.00;;;;;19.50;100.00;100079.88;5042978;28;45254;-80
2021/10/29 08:22:05;;;;;;;;;10.00;7.25;;;;;19.53;100.00;100082.22;5061341;28;45383;-80
2021/10/29 08:24:33;;;;;;;;;15.50;11.25;;;;;19.42;100.00;100073.53;5042871;28;45281;-80
2021/10/29 08:27:00;;;;;;;;;10.75;7.25;;;;;19.34;100.00;100075.44;5053465;28;45639;-79
2021/10/29 08:29:26;;;;;;;;;7.00;7.00;;;;;19.24;100.00;100062.25;5043989;28;45148;-80
2021/10/29 08:31:51;;;;;;;;;10.75;9.00;;;;;19.34;100.00;100073.59;5040232;28;45171;-80
2021/10/29 08:34:20;;;;;;;;;12.00;11.25;;;;;19.41;100.00;100074.53;5039619;28;45646;-80
2021/10/29 08:36:46;;;;;;;;;9.00;6.50;;;;;19.35;100.00;100091.31;5013111;28;47422;-80
2021/10/29 08:39:13;;;;;;;;;8.75;6.00;;;;;19.35;100.00;100072.59;5036330;28;45492;-80
2021/10/29 08:41:40;;;;;;;;;6.25;6.25;;;;;19.28;100.00;100076.97;5022343;28;45250;-80
2021/10/29 08:44:06;;;;;;;;;8.75;5.75;;;;;19.30;100.00;100085.66;5040064;28;45436;-80
2021/10/29 08:46:33;;;;;;;;;7.00;7.00;;;;;19.33;100.00;100076.44;5038343;28;47301;-81
2021/10/29 08:48:59;;;;;;;;;9.50;6.00;;;;;19.36;100.00;100071.56;5039916;28;45271;-81
2021/10/29 08:51:26;;;;;;;;;5.50;4.50;;;;;19.25;100.00;100073.81;5022213;28;45370;-80
2021/10/29 08:53:54;;;;;;;;;7.25;6.25;;;;;19.27;100.00;100064.59;5039953;28;45372;-80
2021/10/29 08:56:19;;;;;;;;;6.25;6.00;;;;;19.32;100.00;100075.59;5049086;28;45436;-80
2021/10/29 08:59:10;;;;;;;;;10.75;8.00;;;;;19.43;100.00;100083.25;5042724;28;45171;-80
2021/10/29 09:01:55;;;;;;;;;10.50;7.00;;;;;19.42;100.00;100081.56;5022026;28;45562;-80
2021/10/29 09:32:34;;;;;;;;;9.75;7.00;;;;;19.85;100.00;100081.16;5039319;28;45361;-80
2021/10/29 09:35:15;;;;;;;;;9.00;7.25;;;;;19.90;100.00;100082.28;5021838;28;45337;-80
2021/10/29 09:38:04;;;;;;;;;7.75;6.25;;;;;20.01;100.00;100087.22;5021462;28;46097;-80
2021/10/29 09:40:43;;;;;;;;;11.25;6.00;;;;;20.07;100.00;100089.16;5021549;28;47196;-80
2021/10/29 09:43:18;;;;;;;;;8.50;5.75;;;;;20.17;100.00;100086.25;5039687;28;45150;-80
2021/10/29 09:45:57;;;;;;;;;7.00;5.00;;;;;20.06;100.00;100075.94;5021883;28;45291;-80
2021/10/29 09:48:31;;;;;;;;;7.00;5.75;;;;;20.14;100.00;100082.06;5043194;28;45384;-81
2021/10/29 09:50:59;;;;;;;;;6.50;6.50;;;;;20.30;100.00;100082.94;5025167;28;47349;-81
2021/10/29 09:58:59;;;;;;;;;8.00;6.25;;;;;20.90;100.00;100078.28;4962649;28;45270;-81
2021/10/29 10:01:27;;;;;;;;;7.75;6.75;;;;;21.05;100.00;100085.47;5005569;28;47201;-81
2021/10/29 10:03:53;;;;;;;;;8.50;7.50;;;;;21.19;100.00;100077.44;5024253;28;45520;-81
2021/10/29 10:06:23;;;;;;;;;5.75;5.75;;;;;21.20;100.00;100076.44;5042612;28;45319;-81
2021/10/29 10:08:51;;;;;;;;;8.25;8.00;;;;;21.07;100.00;100089.66;5042444;28;45491;-81
2021/10/29 10:11:18;;;;;;;;;8.00;7.00;;;;;20.84;100.00;100091.63;5042358;28;46396;-81
2021/10/29 10:13:44;;;;;;;;;10.00;7.00;;;;;20.71;100.00;100118.25;5048278;28;45559;-81
2021/10/29 10:16:10;;;;;;;;;10.00;7.00;;;;;20.63;100.00;100108.44;5042542;28;45446;-81
2021/10/29 10:18:35;;;;;;;;;6.50;6.25;;;;;20.54;100.00;100109.56;5024076;28;45554;-81
2021/10/29 10:21:05;;;;;;;;;6.50;6.25;;;;;20.33;100.00;100112.06;5024228;28;48502;-81
2021/10/29 10:23:37;;;;;;;;;7.25;7.00;;;;;24.70;100.00;101018.84;5024249;28;45439;-81
2021/10/29 10:43:09;;;;;;;;;9.00;8.50;;;;;21.31;100.00;100101.09;5004688;28;45302;-81
2021/10/29 10:45:41;;;;;;;;;11.50;9.00;;;;;21.76;100.00;100098.09;5023928;28;45957;-81
2021/10/29 10:48:12;;;;;;;;;11.25;7.25;;;;;21.38;100.00;100099.34;5041804;28;45304;-81
2021/10/29 10:50:46;;;;;;;;;11.75;10.25;;;;;21.38;100.00;100097.50;5041679;28;45367;-81
2021/10/29 10:53:19;;;;;;;;;12.00;7.75;;;;;43.08;100.00;100072.44;5023828;28;48013;-81
2021/10/29 11:09:58;;;;;;;;;14.75;11.75;;;;;20.81;100.00;100132.25;5041611;28;45479;-80
2021/10/29 11:12:54;;;;;;;;;12.00;9.00;;;;;20.80;100.00;100142.13;5042964;28;45430;-81
2021/10/29 11:15:25;;;;;;;;;10.00;10.00;;;;;20.57;100.00;100130.66;5027925;28;46146;-81
2021/10/29 11:17:56;;;;;;;;;13.00;11.75;;;;;20.35;100.00;100127.00;5022701;28;45481;-80
2021/10/29 11:20:44;;;;;;;;;10.00;8.00;;;;;20.37;100.00;100124.13;5023377;28;45277;-81
2021/10/29 11:23:12;;;;;;;;;10.25;9.25;;;;;20.16;100.00;100119.41;5041151;28;45396;-80
2021/10/29 11:26:04;;;;;;;;;13.00;8.75;;;;;20.34;100.00;100113.72;5041273;28;46291;-81
2021/10/29 11:28:44;;;;;;;;;10.00;9.00;;;;;20.70;100.00;100117.41;5027696;28;45589;-81
2021/10/29 11:31:13;;;;;;;;;15.00;14.50;;;;;22.88;100.00;100088.28;5040953;28;45336;-80
2021/10/29 11:33:43;;;;;;;;;15.00;13.25;;;;;24.41;100.00;100079.53;5040744;28;45250;-80
2021/10/29 11:36:14;;;;;;;;;16.75;11.00;;;;;24.97;100.00;100071.75;5022852;28;47424;-80
2021/10/29 11:38:46;;;;;;;;;16.00;12.00;;;;;24.83;100.00;100079.03;5040992;28;45310;-80
2021/10/29 11:41:27;;;;;;;;;15.25;13.50;;;;;25.48;100.00;100055.53;5040973;28;45307;-80
2021/10/29 11:44:00;;;;;;;;;15.50;10.75;;;;;24.22;100.00;100068.53;5040855;28;45472;-80
2021/10/29 11:46:27;;;;;;;;;21.75;16.25;;;;;23.29;100.00;100060.50;5023777;28;46437;-80
2021/10/29 11:48:52;;;;;;;;;17.00;12.50;;;;;22.68;100.00;100063.91;5043056;28;45407;-80
2021/10/29 11:51:20;;;;;;;;;17.50;13.25;;;;;22.87;100.00;100053.47;5024251;28;45357;-80
2021/10/29 11:53:54;;;;;;;;;14.00;14.00;;;;;22.77;100.00;100056.53;5022831;28;45542;-80
2021/10/29 12:07:19;;;;;;;;;17.75;13.50;;;;;22.22;100.00;100063.59;5040617;28;45380;-80
2021/10/29 12:09:52;;;;;;;;;19.75;15.00;;;;;22.40;100.00;100061.25;5022106;28;45328;-81
2021/10/29 12:12:23;;;;;;;;;14.25;14.00;;;;;22.46;100.00;100066.88;5041577;28;45392;-80
2021/10/29 12:14:52;;;;;;;;;11.50;7.75;;;;;21.85;100.00;100067.38;5044195;28;45235;-79
2021/10/29 12:17:24;;;;;;;;;14.50;14.25;;;;;21.83;100.00;100063.25;5053380;28;46007;-80
2021/10/29 12:19:57;;;;;;;;;18.00;16.00;;;;;22.22;100.00;100057.38;5043219;28;44899;-80
2021/10/29 12:22:34;;;;;;;;;16.50;12.75;;;;;22.53;100.00;100062.38;5061411;28;45260;-80
2021/10/29 12:27:40;;;;;;;;;18.25;14.50;;;;;22.87;100.00;100051.59;5047240;28;45345;-81
2021/10/29 12:30:16;;;;;;;;;20.75;16.75;;;;;23.08;100.00;100051.50;5045004;28;45313;-81
2021/10/29 12:38:47;;;;;;;;;16.75;14.00;;;;;23.46;100.00;100045.63;5041970;28;45910;-81
2021/10/29 13:03:21;;;;;;;;;16.50;13.25;;;;;23.07;100.00;99998.66;5039437;28;45419;-79
2021/10/29 13:05:57;;;;;;;;;17.00;12.75;;;;;22.79;100.00;100003.31;5040331;28;45374;-79
2021/10/29 13:08:24;;;;;;;;;15.00;14.00;;;;;22.67;100.00;100011.09;5040485;28;45408;-79
2021/10/29 13:10:54;;;;;;;;;20.00;12.75;;;;;22.61;100.00;100030.75;5041510;28;45412;-79
2021/10/29 13:14:06;;;;;;;;;17.75;13.75;;;;;22.48;100.00;100027.16;5045866;28;45318;-80
2021/10/29 13:16:11;;;;;;;;;11.75;10.25;;;;;22.39;100.00;100032.69;5032673;28;45266;-82
2021/10/29 13:22:08;;;;;;;;;11.00;11.00;;;;;22.44;100.00;100028.56;5039706;28;46063;-80
2021/10/29 13:26:46;;;;;;;;;13.50;11.50;;;;;22.82;100.00;100029.03;5043038;28;45426;-80
2021/10/29 13:56:44;;;;;;;;;14.75;9.50;;;;;22.19;100.00;100063.16;5051977;28;45238;-80
2021/10/29 14:29:19;;;;;;;;;11.75;9.25;;;;;21.16;100.00;100083.16;5048636;28;45212;-81
2021/10/29 14:31:57;;;;;;;;;13.00;13.00;;;;;21.11;100.00;100066.78;5043346;28;45286;-81
2021/10/29 14:34:27;;;;;;;;;10.75;10.00;;;;;21.12;100.00;100076.47;5042141;28;45540;-81
2021/10/29 14:39:46;;;;;;;;;10.75;10.25;;;;;21.33;100.00;100075.72;5036124;28;45219;-81
2021/10/29 14:42:19;;;;;;;;;14.25;11.75;;;;;21.36;100.00;100078.06;5004150;28;45236;-80
2021/10/29 15:27:17;;;;;;;;;15.00;13.25;;;;;20.79;100.00;100092.16;5044020;28;45638;-80
2021/10/29 15:45:40;;;;;;;;;18.00;15.50;;;;;22.28;100.00;100073.59;5020979;28;46697;-80
2021/10/29 15:50:34;;;;;;;;;20.00;15.00;;;;;22.11;100.00;100077.59;5021201;28;45182;-80
2021/10/29 15:52:59;;;;;;;;;19.50;15.75;;;;;22.00;100.00;100087.00;5024372;28;45471;-79
2021/10/29 15:55:35;;;;;;;;;14.00;13.00;;;;;22.06;100.00;100087.25;5029469;28;45218;-79
2021/10/29 15:58:26;;;;;;;;;15.00;14.50;;;;;21.34;100.00;100096.19;5036366;28;45259;-80
2021/10/29 16:03:31;;;;;;;;;14.00;13.00;;;;;21.07;100.00;100084.28;5041836;28;45241;-79
2021/10/29 16:17:13;;;;;;;;;21.25;15.75;;;;;22.40;100.00;100090.84;5040708;28;45254;-80
2021/10/29 16:19:40;;;;;;;;;16.50;15.00;;;;;22.07;100.00;100097.81;5040832;28;45347;-79